Time;durP1;ratioP1;P1;durP2;ratioP2;P2;SDS_P1;SDS_P2;PMS_P1;PMS_P2;Temp;Humidity;BMP_temperature;BMP_pressure;BME280_temperature;BME280_humidity;BME280_pressure;Samples;Min_cycle;Max_cycle;Signal;HPM_P1;HPM_P2
2022/06/09 00:00:47;;;;;;;22.10;7.70;;;;;;;;;;4996625;28;20274;-71
2022/06/09 00:03:15;;;;;;;16.20;6.88;;;;;;;;;;4990269;28;20283;-71
2022/06/09 00:05:40;;;;;;;18.90;7.93;;;;;;;;;;4987225;28;20364;-70
2022/06/09 00:08:06;;;;;;;32.22;10.48;;;;;;;;;;4989680;28;20042;-71
2022/06/09 00:10:34;;;;;;;26.55;9.23;;;;;;;;;;4985559;28;20412;-70
2022/06/09 00:12:59;;;;;;;23.38;8.93;;;;;;;;;;4985505;28;20073;-71
2022/06/09 00:15:25;;;;;;;22.20;8.27;;;;;;;;;;4986890;28;20030;-71
2022/06/09 00:17:51;;;;;;;26.75;9.68;;;;;;;;;;4991870;28;20029;-70
2022/06/09 00:20:16;;;;;;;24.03;9.10;;;;;;;;;;4986965;28;20034;-70
2022/06/09 00:22:42;;;;;;;20.50;8.88;;;;;;;;;;4985848;28;20267;-71
2022/06/09 00:25:07;;;;;;;20.45;9.43;;;;;;;;;;4989326;28;20027;-70
2022/06/09 00:27:32;;;;;;;27.25;7.95;;;;;;;;;;4983064;28;20027;-69
2022/06/09 00:29:58;;;;;;;27.48;10.82;;;;;;;;;;4986747;28;20054;-68
2022/06/09 00:32:23;;;;;;;26.53;10.13;;;;;;;;;;4988798;28;20615;-70
2022/06/09 00:34:48;;;;;;;23.63;9.67;;;;;;;;;;4987063;28;20341;-70
2022/06/09 00:37:13;;;;;;;15.33;8.37;;;;;;;;;;4986578;28;20061;-70
2022/06/09 00:39:38;;;;;;;17.45;7.78;;;;;;;;;;4981088;28;20034;-69
2022/06/09 00:42:05;;;;;;;19.90;8.40;;;;;;;;;;4995356;28;20137;-70
2022/06/09 00:44:30;;;;;;;17.00;7.47;;;;;;;;;;4989259;28;20109;-71
2022/06/09 00:46:55;;;;;;;23.73;8.27;;;;;;;;;;4987541;28;20035;-72
2022/06/09 00:49:23;;;;;;;22.08;7.57;;;;;;;;;;4986380;28;20069;-71
2022/06/09 00:51:50;;;;;;;19.08;7.28;;;;;;;;;;4983365;28;20026;-71
2022/06/09 00:54:20;;;;;;;24.88;8.30;;;;;;;;;;4987402;28;20333;-71
2022/06/09 00:56:53;;;;;;;23.00;7.75;;;;;;;;;;4988248;28;20022;-71
2022/06/09 00:59:19;;;;;;;24.87;7.93;;;;;;;;;;4988134;28;20037;-71
2022/06/09 01:01:45;;;;;;;24.52;6.82;;;;;;;;;;4990160;28;20318;-71
2022/06/09 01:04:11;;;;;;;32.05;7.38;;;;;;;;;;4994445;28;20029;-71
2022/06/09 01:06:51;;;;;;;18.80;6.45;;;;;;;;;;4990406;28;20026;-70
2022/06/09 01:09:18;;;;;;;27.85;7.40;;;;;;;;;;4988842;28;20026;-71
2022/06/09 01:11:45;;;;;;;19.90;6.47;;;;;;;;;;4994219;28;20029;-70
2022/06/09 01:14:14;;;;;;;25.52;7.55;;;;;;;;;;4993031;28;20037;-72
2022/06/09 01:16:48;;;;;;;22.00;5.70;;;;;;;;;;4990628;28;20123;-70
2022/06/09 01:19:40;;;;;;;24.10;6.38;;;;;;;;;;4997888;28;20057;-69
2022/06/09 01:22:23;;;;;;;17.02;5.72;;;;;;;;;;4987007;28;20417;-74
2022/06/09 01:25:01;;;;;;;25.25;6.45;;;;;;;;;;4994676;28;20381;-70
2022/06/09 01:27:29;;;;;;;21.20;6.57;;;;;;;;;;5000125;28;20030;-72
2022/06/09 01:29:54;;;;;;;25.30;7.18;;;;;;;;;;4986668;28;20489;-71
2022/06/09 01:32:19;;;;;;;23.50;7.38;;;;;;;;;;4988982;28;20104;-71
2022/06/09 01:34:55;;;;;;;18.17;6.60;;;;;;;;;;4993615;28;20022;-71
2022/06/09 01:37:22;;;;;;;14.88;6.30;;;;;;;;;;4993446;28;20076;-71
2022/06/09 01:39:56;;;;;;;16.83;5.40;;;;;;;;;;4994853;28;20041;-71
2022/06/09 01:42:23;;;;;;;20.02;8.45;;;;;;;;;;4986660;28;20030;-70
2022/06/09 01:44:49;;;;;;;19.55;6.60;;;;;;;;;;4986362;28;20034;-71
2022/06/09 01:47:17;;;;;;;25.30;6.35;;;;;;;;;;4983548;28;20073;-69
2022/06/09 01:49:43;;;;;;;17.02;5.93;;;;;;;;;;4986865;28;20076;-71
2022/06/09 01:52:09;;;;;;;19.60;6.43;;;;;;;;;;4985440;28;20041;-70
2022/06/09 01:54:36;;;;;;;20.40;6.38;;;;;;;;;;4981834;28;20113;-70
2022/06/09 01:57:03;;;;;;;16.25;6.50;;;;;;;;;;4983658;28;20058;-71
2022/06/09 01:59:32;;;;;;;29.23;6.57;;;;;;;;;;4987320;28;20022;-72
2022/06/09 02:02:00;;;;;;;25.77;6.65;;;;;;;;;;4984323;28;20040;-70
2022/06/09 02:04:32;;;;;;;21.50;6.75;;;;;;;;;;4990252;28;20121;-70
2022/06/09 02:06:57;;;;;;;23.55;6.88;;;;;;;;;;4993093;28;20130;-72
2022/06/09 02:09:27;;;;;;;19.20;6.63;;;;;;;;;;4987185;28;20047;-71
2022/06/09 02:11:54;;;;;;;21.25;6.75;;;;;;;;;;4986156;28;20041;-70
2022/06/09 02:14:20;;;;;;;19.65;6.47;;;;;;;;;;4987520;28;20030;-71
2022/06/09 02:16:45;;;;;;;16.85;5.55;;;;;;;;;;4988015;28;20025;-72
2022/06/09 02:19:11;;;;;;;34.08;8.10;;;;;;;;;;4979871;28;20034;-70
2022/06/09 02:21:37;;;;;;;20.67;7.57;;;;;;;;;;4980614;28;20053;-71
2022/06/09 02:24:02;;;;;;;28.45;7.68;;;;;;;;;;4981196;28;20074;-72
2022/06/09 02:26:28;;;;;;;20.50;6.95;;;;;;;;;;4991851;28;20460;-70
2022/06/09 02:28:53;;;;;;;20.77;6.35;;;;;;;;;;4986404;28;20029;-70
2022/06/09 02:31:20;;;;;;;26.13;7.10;;;;;;;;;;4983832;28;20022;-70
2022/06/09 02:33:46;;;;;;;26.63;7.15;;;;;;;;;;4984722;28;20054;-69
2022/06/09 02:36:11;;;;;;;22.05;6.78;;;;;;;;;;4989020;28;20124;-71
2022/06/09 02:38:36;;;;;;;28.37;8.30;;;;;;;;;;4989920;28;20336;-71
2022/06/09 02:41:01;;;;;;;30.13;8.18;;;;;;;;;;4987155;28;20588;-70
2022/06/09 02:43:26;;;;;;;32.67;8.85;;;;;;;;;;4983857;28;20026;-70
2022/06/09 02:45:53;;;;;;;22.63;8.38;;;;;;;;;;4984237;28;20357;-70
2022/06/09 02:48:18;;;;;;;29.10;9.45;;;;;;;;;;4984601;28;20060;-69
2022/06/09 02:50:46;;;;;;;22.70;8.13;;;;;;;;;;4982106;28;20113;-71
2022/06/09 02:53:11;;;;;;;28.60;9.93;;;;;;;;;;5004286;28;20021;-71
2022/06/09 02:55:36;;;;;;;33.92;10.13;;;;;;;;;;4988104;28;20030;-70
2022/06/09 02:58:02;;;;;;;32.33;10.10;;;;;;;;;;4985760;28;20030;-71
2022/06/09 03:00:27;;;;;;;32.28;10.30;;;;;;;;;;4991797;28;20310;-71
2022/06/09 03:02:54;;;;;;;31.15;9.27;;;;;;;;;;4985851;28;20030;-71
2022/06/09 03:05:20;;;;;;;34.22;9.10;;;;;;;;;;4980699;28;20041;-70
2022/06/09 03:07:45;;;;;;;37.13;10.07;;;;;;;;;;4985547;28;20022;-71
2022/06/09 03:10:10;;;;;;;30.83;8.90;;;;;;;;;;4982221;28;20497;-71
2022/06/09 03:12:35;;;;;;;25.65;9.10;;;;;;;;;;4988599;28;20275;-71
2022/06/09 03:15:01;;;;;;;39.95;9.57;;;;;;;;;;4984978;28;20256;-71
2022/06/09 03:17:26;;;;;;;26.45;9.77;;;;;;;;;;4992731;28;20038;-71
2022/06/09 03:19:51;;;;;;;27.13;9.13;;;;;;;;;;4991487;28;20109;-71
2022/06/09 03:22:17;;;;;;;31.63;9.60;;;;;;;;;;4983229;28;20344;-71
2022/06/09 03:24:42;;;;;;;27.48;9.02;;;;;;;;;;4986595;28;20022;-71
2022/06/09 03:27:08;;;;;;;32.72;9.90;;;;;;;;;;4984641;28;20019;-71
2022/06/09 03:29:33;;;;;;;33.90;9.40;;;;;;;;;;4985370;28;20023;-71
2022/06/09 03:31:58;;;;;;;29.80;8.77;;;;;;;;;;4989781;28;20295;-71
2022/06/09 03:34:24;;;;;;;24.33;8.70;;;;;;;;;;4987410;28;20030;-70
2022/06/09 03:36:49;;;;;;;24.33;9.43;;;;;;;;;;4985763;28;20276;-72
2022/06/09 03:39:14;;;;;;;30.35;9.35;;;;;;;;;;4993497;28;20466;-69
2022/06/09 03:41:39;;;;;;;38.30;9.43;;;;;;;;;;4982172;28;20982;-70
2022/06/09 03:44:05;;;;;;;35.47;10.32;;;;;;;;;;4983857;28;20347;-67
2022/06/09 03:46:30;;;;;;;29.42;8.68;;;;;;;;;;4982647;28;20029;-71
2022/06/09 03:48:56;;;;;;;30.67;9.15;;;;;;;;;;4986000;28;20346;-72
2022/06/09 03:51:21;;;;;;;35.97;9.77;;;;;;;;;;4987346;28;20088;-72
2022/06/09 03:53:46;;;;;;;39.33;10.38;;;;;;;;;;4984576;28;20074;-71
2022/06/09 03:56:15;;;;;;;39.53;9.57;;;;;;;;;;4985818;28;20370;-69
2022/06/09 03:58:41;;;;;;;27.23;9.85;;;;;;;;;;4985274;28;20294;-71
2022/06/09 04:01:06;;;;;;;24.48;10.25;;;;;;;;;;4981733;28;20026;-72
2022/06/09 04:03:31;;;;;;;32.08;10.20;;;;;;;;;;4992332;28;20141;-69
2022/06/09 04:05:57;;;;;;;30.63;10.97;;;;;;;;;;4983517;28;20054;-71
2022/06/09 04:08:22;;;;;;;35.20;10.75;;;;;;;;;;4988679;28;20256;-71
2022/06/09 04:10:48;;;;;;;32.55;9.98;;;;;;;;;;4983879;28;20116;-72
2022/06/09 04:13:13;;;;;;;39.53;10.88;;;;;;;;;;4981800;28;20041;-71
2022/06/09 04:15:38;;;;;;;40.08;10.73;;;;;;;;;;4985991;28;20027;-71
2022/06/09 04:18:04;;;;;;;47.28;13.07;;;;;;;;;;4983751;28;20390;-71
2022/06/09 04:20:29;;;;;;;37.80;13.20;;;;;;;;;;4982790;28;20407;-71
2022/06/09 04:22:55;;;;;;;36.50;10.35;;;;;;;;;;4983877;28;20029;-70
2022/06/09 04:25:20;;;;;;;35.00;9.93;;;;;;;;;;4986082;28;20026;-71
2022/06/09 04:27:46;;;;;;;28.60;9.40;;;;;;;;;;4982533;28;20837;-71
2022/06/09 04:30:12;;;;;;;38.17;10.85;;;;;;;;;;4997458;28;20465;-71
2022/06/09 04:32:37;;;;;;;38.13;10.23;;;;;;;;;;4991175;28;20026;-72
2022/06/09 04:35:03;;;;;;;34.50;10.32;;;;;;;;;;4993616;28;20032;-72
2022/06/09 04:40:12;;;;;;;27.85;9.68;;;;;;;;;;4984249;28;20065;-75
2022/06/09 04:42:37;;;;;;;22.30;9.02;;;;;;;;;;5003782;28;20034;-74
2022/06/09 04:45:03;;;;;;;31.60;9.60;;;;;;;;;;4995939;28;20060;-74
2022/06/09 04:47:28;;;;;;;30.65;9.50;;;;;;;;;;4989818;28;20026;-71
2022/06/09 04:49:54;;;;;;;33.83;8.93;;;;;;;;;;4984441;28;20018;-72
2022/06/09 04:52:19;;;;;;;27.73;8.68;;;;;;;;;;4992665;28;20276;-75
2022/06/09 04:54:44;;;;;;;18.60;7.93;;;;;;;;;;4983221;28;20400;-73
2022/06/09 04:57:10;;;;;;;28.98;8.77;;;;;;;;;;4986771;28;20271;-73
2022/06/09 04:59:35;;;;;;;30.77;8.77;;;;;;;;;;4984457;28;20026;-74
2022/06/09 05:02:00;;;;;;;39.87;8.63;;;;;;;;;;4981818;28;20809;-72
2022/06/09 05:04:25;;;;;;;34.43;8.40;;;;;;;;;;4986106;28;20279;-74
2022/06/09 05:06:50;;;;;;;22.67;8.37;;;;;;;;;;4981954;28;20452;-74
2022/06/09 05:09:17;;;;;;;32.73;8.80;;;;;;;;;;4979307;28;20296;-69
2022/06/09 05:11:42;;;;;;;28.65;8.25;;;;;;;;;;4979804;28;20278;-71
2022/06/09 05:14:07;;;;;;;26.88;8.90;;;;;;;;;;4981206;28;20030;-71
2022/06/09 05:16:32;;;;;;;30.13;9.60;;;;;;;;;;4979889;28;20115;-73
2022/06/09 05:18:58;;;;;;;19.90;8.07;;;;;;;;;;4977846;28;20288;-71
2022/06/09 05:21:23;;;;;;;29.70;10.07;;;;;;;;;;4984655;28;20315;-70
2022/06/09 05:23:48;;;;;;;29.87;8.27;;;;;;;;;;4984063;28;20030;-72
2022/06/09 05:26:13;;;;;;;22.00;7.77;;;;;;;;;;4980116;28;20291;-70
2022/06/09 05:28:39;;;;;;;33.22;8.18;;;;;;;;;;4980467;28;20596;-69
2022/06/09 05:31:04;;;;;;;22.00;7.57;;;;;;;;;;4982386;28;20034;-70
2022/06/09 05:33:29;;;;;;;19.45;6.80;;;;;;;;;;4981827;28;20389;-70
2022/06/09 05:35:56;;;;;;;24.83;7.67;;;;;;;;;;4983002;28;20498;-71
2022/06/09 05:46:35;;;;;;;34.70;9.68;;;;;;;;;;4987627;28;20033;-71
2022/06/09 05:49:01;;;;;;;27.23;8.85;;;;;;;;;;4988653;28;20026;-71
2022/06/09 05:51:26;;;;;;;31.38;7.85;;;;;;;;;;4985612;28;20030;-73
2022/06/09 05:53:51;;;;;;;18.73;8.15;;;;;;;;;;4981383;28;20048;-72
2022/06/09 05:56:17;;;;;;;25.98;8.25;;;;;;;;;;4988740;28;20077;-68
2022/06/09 05:58:42;;;;;;;35.90;9.10;;;;;;;;;;4988664;28;20022;-68
2022/06/09 06:01:08;;;;;;;25.90;8.65;;;;;;;;;;4988991;28;20120;-71
2022/06/09 06:03:34;;;;;;;34.72;9.35;;;;;;;;;;4987288;28;20519;-69
2022/06/09 06:08:44;;;;;;;30.42;9.68;;;;;;;;;;4981523;28;20041;-74
2022/06/09 06:11:09;;;;;;;35.80;11.00;;;;;;;;;;4984382;28;20034;-71
2022/06/09 06:13:35;;;;;;;25.60;8.48;;;;;;;;;;4982255;28;20276;-69
2022/06/09 06:16:00;;;;;;;29.23;9.77;;;;;;;;;;4975702;28;20050;-70
2022/06/09 06:18:27;;;;;;;27.00;8.97;;;;;;;;;;4980922;28;20029;-72
2022/06/09 06:20:55;;;;;;;24.23;7.95;;;;;;;;;;4981055;28;20082;-72
2022/06/09 06:23:20;;;;;;;24.67;8.85;;;;;;;;;;4983471;28;20033;-71
2022/06/09 06:25:45;;;;;;;21.02;8.15;;;;;;;;;;4980010;28;20030;-69
2022/06/09 06:28:11;;;;;;;28.47;8.13;;;;;;;;;;4982159;28;20069;-72
2022/06/09 06:30:36;;;;;;;19.98;7.43;;;;;;;;;;4981434;28;20289;-72
2022/06/09 06:33:01;;;;;;;22.40;7.33;;;;;;;;;;4990029;28;20042;-69
2022/06/09 06:35:26;;;;;;;27.47;9.37;;;;;;;;;;4984584;28;20330;-72
2022/06/09 06:37:52;;;;;;;24.63;8.63;;;;;;;;;;4981027;28;20278;-74
2022/06/09 06:40:17;;;;;;;16.25;6.30;;;;;;;;;;4982067;28;20267;-73
2022/06/09 06:42:42;;;;;;;16.55;5.90;;;;;;;;;;4987655;28;20449;-71
2022/06/09 06:45:09;;;;;;;8.60;4.40;;;;;;;;;;4993620;28;20032;-75
2022/06/09 06:47:34;;;;;;;13.50;5.25;;;;;;;;;;4998097;28;20272;-72
2022/06/09 06:50:00;;;;;;;14.83;5.17;;;;;;;;;;4982090;28;20039;-69
2022/06/09 06:52:25;;;;;;;8.57;4.20;;;;;;;;;;4982584;28;20031;-72
2022/06/09 06:54:50;;;;;;;10.30;3.22;;;;;;;;;;4988150;28;20041;-69
2022/06/09 06:57:15;;;;;;;8.47;2.80;;;;;;;;;;4988549;28;20075;-69
2022/06/09 06:59:41;;;;;;;7.70;2.80;;;;;;;;;;4978979;28;20762;-72
2022/06/09 07:02:07;;;;;;;10.77;2.95;;;;;;;;;;4980429;28;21062;-73
2022/06/09 07:04:32;;;;;;;6.20;3.30;;;;;;;;;;4979521;28;20037;-72
2022/06/09 07:06:57;;;;;;;6.37;2.90;;;;;;;;;;4988319;28;20018;-71
2022/06/09 07:09:22;;;;;;;9.50;2.90;;;;;;;;;;4985082;28;20656;-71
2022/06/09 07:11:47;;;;;;;7.90;3.20;;;;;;;;;;4979153;28;20057;-70
2022/06/09 07:14:13;;;;;;;9.55;2.60;;;;;;;;;;4986862;28;20264;-70
2022/06/09 07:16:38;;;;;;;8.10;2.40;;;;;;;;;;4982147;28;20033;-72
2022/06/09 07:19:03;;;;;;;5.35;2.03;;;;;;;;;;4986670;28;20283;-71
2022/06/09 07:21:29;;;;;;;3.83;1.80;;;;;;;;;;4978925;28;20026;-72
2022/06/09 07:23:54;;;;;;;5.90;2.20;;;;;;;;;;4983618;28;20121;-73
2022/06/09 07:26:19;;;;;;;8.40;1.87;;;;;;;;;;4980254;28;20533;-72
2022/06/09 07:28:44;;;;;;;7.27;3.33;;;;;;;;;;4981827;28;20028;-73
2022/06/09 07:31:10;;;;;;;16.80;11.33;;;;;;;;;;4980275;28;20268;-73
2022/06/09 07:33:36;;;;;;;6.10;1.90;;;;;;;;;;4994410;28;20035;-73
2022/06/09 07:36:04;;;;;;;4.80;1.85;;;;;;;;;;4981081;28;20149;-74
2022/06/09 07:38:30;;;;;;;2.70;2.10;;;;;;;;;;4983366;28;20291;-72
2022/06/09 07:40:55;;;;;;;3.22;2.28;;;;;;;;;;4978213;28;20019;-72
2022/06/09 07:43:21;;;;;;;3.78;2.00;;;;;;;;;;4981742;28;20480;-71
2022/06/09 07:45:47;;;;;;;2.63;2.05;;;;;;;;;;4974904;28;20024;-71
2022/06/09 07:48:12;;;;;;;3.22;1.70;;;;;;;;;;4978053;28;20023;-72
2022/06/09 07:50:38;;;;;;;2.30;2.10;;;;;;;;;;4979316;28;20030;-72
2022/06/09 07:53:03;;;;;;;4.97;2.33;;;;;;;;;;4983099;28;20026;-71
2022/06/09 07:55:29;;;;;;;2.78;2.08;;;;;;;;;;4975695;28;20098;-71
2022/06/09 07:57:54;;;;;;;2.67;2.17;;;;;;;;;;4978210;28;20014;-71
2022/06/09 08:00:21;;;;;;;3.38;1.50;;;;;;;;;;4979551;28;20657;-71
2022/06/09 08:02:46;;;;;;;1.80;1.70;;;;;;;;;;4987875;28;19928;-73
2022/06/09 08:05:13;;;;;;;2.63;1.50;;;;;;;;;;4990955;28;20022;-70
2022/06/09 08:07:38;;;;;;;1.95;1.67;;;;;;;;;;4984883;28;20268;-73
2022/06/09 08:10:05;;;;;;;3.63;1.67;;;;;;;;;;4993025;28;20516;-71
2022/06/09 08:12:30;;;;;;;4.00;1.48;;;;;;;;;;4986911;28;20381;-74
2022/06/09 08:14:55;;;;;;;3.40;1.67;;;;;;;;;;4993966;28;20019;-72
2022/06/09 08:17:22;;;;;;;3.27;1.30;;;;;;;;;;4987902;28;20061;-71
2022/06/09 08:19:47;;;;;;;2.47;1.52;;;;;;;;;;4985091;28;20307;-72
2022/06/09 08:22:13;;;;;;;3.03;1.85;;;;;;;;;;4987886;28;20168;-73
2022/06/09 08:24:38;;;;;;;2.30;1.40;;;;;;;;;;4991229;28;20205;-72
2022/06/09 08:27:03;;;;;;;1.70;1.60;;;;;;;;;;4986597;28;20046;-72
2022/06/09 08:29:29;;;;;;;2.63;1.67;;;;;;;;;;4987069;28;20030;-73
2022/06/09 08:31:54;;;;;;;2.47;1.58;;;;;;;;;;4986148;28;20029;-71
2022/06/09 08:34:20;;;;;;;2.80;1.50;;;;;;;;;;4988159;28;20081;-72
2022/06/09 08:36:45;;;;;;;4.43;2.20;;;;;;;;;;5010813;28;20018;-72
2022/06/09 08:39:10;;;;;;;2.70;1.33;;;;;;;;;;5001588;28;20480;-70
2022/06/09 08:41:51;;;;;;;1.38;1.15;;;;;;;;;;5010562;28;20358;-70
2022/06/09 08:44:22;;;;;;;1.33;1.20;;;;;;;;;;4998297;28;20036;-72
2022/06/09 08:46:54;;;;;;;1.55;1.17;;;;;;;;;;5003587;28;20021;-72
2022/06/09 08:49:31;;;;;;;2.88;1.60;;;;;;;;;;4989677;28;20473;-72
2022/06/09 08:52:00;;;;;;;1.10;1.00;;;;;;;;;;5006924;28;20048;-72
2022/06/09 08:54:33;;;;;;;3.38;1.60;;;;;;;;;;4990339;28;20113;-70
2022/06/09 08:57:01;;;;;;;1.88;1.77;;;;;;;;;;4989170;28;20044;-75
2022/06/09 08:59:28;;;;;;;1.70;1.40;;;;;;;;;;4998550;28;20124;-72
2022/06/09 09:02:02;;;;;;;2.80;1.42;;;;;;;;;;4997262;28;20030;-74
2022/06/09 09:04:32;;;;;;;1.90;1.80;;;;;;;;;;4996837;28;20084;-73
2022/06/09 09:07:16;;;;;;;1.58;1.48;;;;;;;;;;4992151;28;20035;-71
2022/06/09 09:09:41;;;;;;;;;;;;;;;;;;4990605;28;20545;-73
2022/06/09 09:12:25;;;;;;;1.10;1.05;;;;;;;;;;4992008;28;19925;-72
2022/06/09 09:14:57;;;;;;;0.80;0.80;;;;;;;;;;4983761;28;20306;-72
2022/06/09 09:17:40;;;;;;;1.35;1.20;;;;;;;;;;4989826;28;20143;-73
2022/06/09 09:20:06;;;;;;;0.98;0.98;;;;;;;;;;4996475;28;20022;-70
2022/06/09 09:22:46;;;;;;;4.23;1.20;;;;;;;;;;4991557;28;20369;-70
2022/06/09 09:25:13;;;;;;;1.38;1.08;;;;;;;;;;4989417;28;20068;-71
2022/06/09 09:28:01;;;;;;;1.38;1.00;;;;;;;;;;5000736;28;20027;-72
2022/06/09 09:30:32;;;;;;;0.93;0.93;;;;;;;;;;4993075;28;20488;-71
2022/06/09 09:32:58;;;;;;;1.75;1.30;;;;;;;;;;4987958;28;20030;-71
2022/06/09 09:35:27;;;;;;;1.40;1.30;;;;;;;;;;4984047;28;20503;-71
2022/06/09 09:37:53;;;;;;;3.83;1.52;;;;;;;;;;4985692;28;20014;-75
2022/06/09 09:40:25;;;;;;;5.90;1.63;;;;;;;;;;4993120;28;20389;-72
2022/06/09 09:42:51;;;;;;;1.30;1.20;;;;;;;;;;4989562;28;20057;-75
2022/06/09 09:45:19;;;;;;;3.13;1.70;;;;;;;;;;4989213;28;20046;-73
2022/06/09 09:47:49;;;;;;;4.68;1.80;;;;;;;;;;4993830;28;20029;-73
2022/06/09 09:50:23;;;;;;;3.65;2.13;;;;;;;;;;4982372;28;20061;-71
2022/06/09 09:52:53;;;;;;;2.83;1.90;;;;;;;;;;4992093;28;20727;-73
2022/06/09 09:55:22;;;;;;;3.50;1.70;;;;;;;;;;4989655;28;20570;-69
2022/06/09 09:57:47;;;;;;;6.47;2.20;;;;;;;;;;4984164;28;20050;-70
2022/06/09 10:00:24;;;;;;;4.10;2.10;;;;;;;;;;4985824;28;20104;-73
2022/06/09 10:08:35;;;;;;;;;;;;;;;;;;4981280;28;20462;-71
2022/06/09 10:11:01;;;;;;;2.35;2.22;;;;;;;;;;4980149;28;19940;-71
2022/06/09 10:13:30;;;;;;;6.88;1.90;;;;;;;;;;4982450;28;20385;-73
2022/06/09 10:15:55;;;;;;;4.53;1.80;;;;;;;;;;4977073;28;20023;-73
2022/06/09 10:18:21;;;;;;;2.10;1.80;;;;;;;;;;4980865;28;20520;-71
2022/06/09 10:21:02;;;;;;;6.97;2.00;;;;;;;;;;4982044;28;20553;-73
2022/06/09 10:23:37;;;;;;;6.00;2.20;;;;;;;;;;4984451;28;20418;-74
2022/06/09 10:26:17;;;;;;;4.00;2.10;;;;;;;;;;4983899;28;20140;-74
2022/06/09 10:28:46;;;;;;;4.13;2.28;;;;;;;;;;4982777;28;20022;-75
2022/06/09 10:31:11;;;;;;;2.90;2.13;;;;;;;;;;4986507;28;20053;-76
2022/06/09 10:33:56;;;;;;;5.25;2.40;;;;;;;;;;4985482;28;20026;-75
2022/06/09 10:36:43;;;;;;;3.67;2.17;;;;;;;;;;4981242;28;20042;-73
2022/06/09 10:39:13;;;;;;;6.55;2.58;;;;;;;;;;4983992;28;20042;-75
2022/06/09 10:41:42;;;;;;;4.40;2.80;;;;;;;;;;4981754;28;20455;-74
2022/06/09 10:44:15;;;;;;;3.50;2.20;;;;;;;;;;4986165;28;20416;-73
2022/06/09 10:46:40;;;;;;;6.07;2.55;;;;;;;;;;4988645;28;20015;-76
2022/06/09 10:55:17;;;;;;;11.00;3.25;;;;;;;;;;4982441;28;21032;-73
2022/06/09 10:57:58;;;;;;;6.68;2.45;;;;;;;;;;4977235;28;20057;-72
2022/06/09 11:00:23;;;;;;;3.80;2.58;;;;;;;;;;4981143;28;20036;-71
2022/06/09 11:02:50;;;;;;;5.50;2.97;;;;;;;;;;4980500;28;20026;-73
2022/06/09 11:05:17;;;;;;;7.70;2.90;;;;;;;;;;4997325;28;20014;-72
2022/06/09 11:07:42;;;;;;;5.20;3.15;;;;;;;;;;4982019;28;20088;-75
2022/06/09 11:10:13;;;;;;;8.18;3.10;;;;;;;;;;4979737;28;20469;-73
2022/06/09 11:12:45;;;;;;;6.05;3.15;;;;;;;;;;4995212;28;20492;-74
2022/06/09 11:15:25;;;;;;;5.13;3.45;;;;;;;;;;4992071;28;20028;-73
2022/06/09 11:18:05;;;;;;;4.50;3.05;;;;;;;;;;4986172;28;20018;-75
2022/06/09 11:20:33;;;;;;;4.88;3.05;;;;;;;;;;4981526;28;20382;-73
2022/06/09 11:23:20;;;;;;;5.25;2.67;;;;;;;;;;4983067;28;20053;-74
2022/06/09 11:26:01;;;;;;;7.60;3.25;;;;;;;;;;4977574;28;20045;-70
2022/06/09 11:28:35;;;;;;;9.05;2.97;;;;;;;;;;4989802;28;20032;-74
2022/06/09 11:31:23;;;;;;;6.40;2.63;;;;;;;;;;4974581;28;20087;-76
2022/06/09 11:34:04;;;;;;;3.75;2.60;;;;;;;;;;4968556;28;22149;-75
2022/06/09 11:36:52;;;;;;;5.38;2.63;;;;;;;;;;4974375;28;20045;-74
2022/06/09 11:39:36;;;;;;;9.43;2.88;;;;;;;;;;4982363;28;20358;-74
2022/06/09 11:42:02;;;;;;;4.32;2.30;;;;;;;;;;4981988;28;20058;-73
2022/06/09 11:44:29;;;;;;;3.58;2.47;;;;;;;;;;4991742;28;20026;-75
2022/06/09 11:46:56;;;;;;;6.63;2.30;;;;;;;;;;4993209;28;20068;-75
2022/06/09 11:49:33;;;;;;;7.43;2.42;;;;;;;;;;4986388;28;20033;-75
2022/06/09 11:52:04;;;;;;;8.73;2.22;;;;;;;;;;5003422;28;20072;-75
2022/06/09 11:54:41;;;;;;;6.97;2.25;;;;;;;;;;4980562;28;20022;-73
2022/06/09 11:57:26;;;;;;;4.60;1.67;;;;;;;;;;4984779;28;20105;-73
2022/06/09 11:59:51;;;;;;;7.93;2.17;;;;;;;;;;4980818;28;20037;-74
2022/06/09 12:02:22;;;;;;;5.07;1.97;;;;;;;;;;4994937;28;20058;-74
2022/06/09 12:04:53;;;;;;;6.55;2.05;;;;;;;;;;4981216;28;20034;-72
2022/06/09 12:07:25;;;;;;;5.43;1.85;;;;;;;;;;4985507;28;20029;-74
2022/06/09 12:10:02;;;;;;;4.70;1.35;;;;;;;;;;4981848;28;20014;-71
2022/06/09 12:12:30;;;;;;;14.80;2.63;;;;;;;;;;4981452;28;20030;-72
2022/06/09 12:15:08;;;;;;;2.08;1.52;;;;;;;;;;4983630;28;20030;-71
2022/06/09 12:17:34;;;;;;;6.45;2.17;;;;;;;;;;4982139;28;20032;-72
2022/06/09 12:20:04;;;;;;;6.35;1.90;;;;;;;;;;4983848;28;20050;-73
2022/06/09 12:22:42;;;;;;;8.63;1.92;;;;;;;;;;4983894;28;20416;-75
2022/06/09 12:25:07;;;;;;;5.10;1.35;;;;;;;;;;4979970;28;20137;-72
2022/06/09 12:27:36;;;;;;;7.05;1.63;;;;;;;;;;4986449;28;20101;-72
2022/06/09 12:30:02;;;;;;;6.20;1.50;;;;;;;;;;4986273;28;20061;-71
2022/06/09 12:32:29;;;;;;;5.03;1.50;;;;;;;;;;4984172;28;20026;-72
2022/06/09 12:34:55;;;;;;;3.35;1.30;;;;;;;;;;4979621;28;20026;-73
2022/06/09 12:37:22;;;;;;;7.45;2.08;;;;;;;;;;4984659;28;20022;-72
2022/06/09 12:39:49;;;;;;;7.22;1.70;;;;;;;;;;4983124;28;20034;-73
2022/06/09 12:42:21;;;;;;;5.40;1.40;;;;;;;;;;4980207;28;20578;-72
2022/06/09 12:44:52;;;;;;;6.43;1.60;;;;;;;;;;4976442;28;20026;-73
2022/06/09 12:47:21;;;;;;;8.70;1.75;;;;;;;;;;4981254;28;20022;-70
2022/06/09 12:49:48;;;;;;;3.50;1.50;;;;;;;;;;4977696;28;20076;-71
2022/06/09 12:52:25;;;;;;;5.53;1.55;;;;;;;;;;4980313;28;20022;-72
2022/06/09 12:54:55;;;;;;;5.68;1.20;;;;;;;;;;4992205;28;20781;-71
2022/06/09 12:57:25;;;;;;;7.25;1.30;;;;;;;;;;4974173;28;20031;-72
2022/06/09 13:00:09;;;;;;;4.70;1.63;;;;;;;;;;4991303;28;20029;-71
2022/06/09 13:02:36;;;;;;;4.05;1.58;;;;;;;;;;4979766;28;20035;-71
2022/06/09 13:05:17;;;;;;;9.20;2.00;;;;;;;;;;4977514;28;20667;-69
2022/06/09 13:07:52;;;;;;;4.47;1.33;;;;;;;;;;4975571;28;20022;-70
2022/06/09 13:10:21;;;;;;;3.05;1.30;;;;;;;;;;4979160;28;20019;-71
2022/06/09 13:12:50;;;;;;;3.85;1.40;;;;;;;;;;4975014;28;20037;-71
2022/06/09 13:15:24;;;;;;;1.52;1.10;;;;;;;;;;4980456;28;20403;-69
2022/06/09 13:17:49;;;;;;;3.45;1.42;;;;;;;;;;4978666;28;20047;-72
2022/06/09 13:20:17;;;;;;;4.40;1.52;;;;;;;;;;4978418;28;20113;-72
2022/06/09 13:22:43;;;;;;;3.40;1.23;;;;;;;;;;4977735;28;20125;-71
2022/06/09 13:25:14;;;;;;;5.10;1.48;;;;;;;;;;4978133;28;20497;-71
2022/06/09 13:27:41;;;;;;;2.63;1.30;;;;;;;;;;4985029;28;20038;-71
2022/06/09 13:30:25;;;;;;;6.15;1.92;;;;;;;;;;4977267;28;20026;-76
2022/06/09 13:32:50;;;;;;;9.18;1.77;;;;;;;;;;4992746;28;20050;-72
2022/06/09 13:35:37;;;;;;;6.15;1.58;;;;;;;;;;4978229;28;20050;-72
2022/06/09 13:38:05;;;;;;;6.95;2.08;;;;;;;;;;4976900;28;20038;-77
2022/06/09 13:40:40;;;;;;;4.97;1.60;;;;;;;;;;4977490;28;20385;-72
2022/06/09 13:43:15;;;;;;;4.65;1.70;;;;;;;;;;4985156;28;20041;-72
2022/06/09 13:45:40;;;;;;;5.38;1.88;;;;;;;;;;4975473;28;20519;-71
2022/06/09 13:48:14;;;;;;;6.13;1.90;;;;;;;;;;4972873;28;20113;-71
2022/06/09 13:50:42;;;;;;;8.07;1.70;;;;;;;;;;4974730;28;20264;-72
2022/06/09 13:53:22;;;;;;;4.03;1.70;;;;;;;;;;4982289;28;20188;-71
2022/06/09 13:55:48;;;;;;;4.55;1.70;;;;;;;;;;4973020;28;20041;-71
2022/06/09 13:58:13;;;;;;;2.05;1.30;;;;;;;;;;4979138;28;20018;-71
2022/06/09 14:00:40;;;;;;;3.70;1.60;;;;;;;;;;4981747;28;20026;-71
2022/06/09 14:03:26;;;;;;;7.35;1.67;;;;;;;;;;4981491;28;20123;-72
2022/06/09 14:05:55;;;;;;;5.60;1.90;;;;;;;;;;4974864;28;20118;-71
2022/06/09 14:08:22;;;;;;;6.07;1.92;;;;;;;;;;4980958;28;20022;-71
2022/06/09 14:10:48;;;;;;;4.72;1.65;;;;;;;;;;4980192;28;20105;-70
2022/06/09 14:13:13;;;;;;;5.80;1.70;;;;;;;;;;4982237;28;20629;-71
2022/06/09 14:15:40;;;;;;;2.72;1.77;;;;;;;;;;4981373;28;20026;-70
2022/06/09 14:18:07;;;;;;;5.90;1.70;;;;;;;;;;4981609;28;20081;-70
2022/06/09 14:20:33;;;;;;;7.82;1.60;;;;;;;;;;4978464;28;20522;-71
2022/06/09 14:22:59;;;;;;;4.78;1.63;;;;;;;;;;4984991;28;20038;-71
2022/06/09 14:25:25;;;;;;;6.22;2.17;;;;;;;;;;4976407;28;20034;-71
2022/06/09 14:27:51;;;;;;;8.75;2.72;;;;;;;;;;4980892;28;20035;-71
2022/06/09 14:30:17;;;;;;;5.90;1.80;;;;;;;;;;4976373;28;20030;-71
2022/06/09 14:32:42;;;;;;;5.32;1.80;;;;;;;;;;4983506;28;20487;-73
2022/06/09 14:35:08;;;;;;;6.45;1.92;;;;;;;;;;4984470;28;20026;-71
2022/06/09 14:37:33;;;;;;;3.97;1.48;;;;;;;;;;4979044;28;20130;-71
2022/06/09 14:39:58;;;;;;;8.30;2.40;;;;;;;;;;4981757;28;20030;-75
2022/06/09 14:42:24;;;;;;;5.23;1.63;;;;;;;;;;4978399;28;20489;-71
2022/06/09 14:44:49;;;;;;;7.65;2.55;;;;;;;;;;4981498;28;20038;-71
2022/06/09 14:47:16;;;;;;;4.70;1.48;;;;;;;;;;4980178;28;20022;-71
2022/06/09 14:49:41;;;;;;;6.50;1.55;;;;;;;;;;4980502;28;20026;-71
2022/06/09 14:52:07;;;;;;;4.43;1.65;;;;;;;;;;4978866;28;20082;-71
2022/06/09 14:54:32;;;;;;;4.70;1.38;;;;;;;;;;4982947;28;20031;-75
2022/06/09 14:57:00;;;;;;;3.85;1.20;;;;;;;;;;4985190;28;20040;-71
2022/06/09 14:59:25;;;;;;;3.30;1.73;;;;;;;;;;4980695;28;20467;-71
2022/06/09 15:01:51;;;;;;;4.50;1.65;;;;;;;;;;4982221;28;20035;-74
2022/06/09 15:04:16;;;;;;;3.47;1.52;;;;;;;;;;4973380;28;20100;-74
2022/06/09 15:06:41;;;;;;;5.97;1.63;;;;;;;;;;4982178;28;20033;-72